createdAt,value
2019-05-19T00:00:09.005Z,1000.36
2019-05-19T00:01:08.953Z,1000.33
2019-05-19T00:02:08.919Z,1000.31
2019-05-19T00:03:08.896Z,1000.35
2019-05-19T00:04:08.839Z,1000.31
2019-05-19T00:05:08.804Z,1000.29
2019-05-19T00:06:08.794Z,1000.27
2019-05-19T00:07:08.741Z,1000.28
2019-05-19T00:08:08.699Z,1000.32
2019-05-19T00:09:08.643Z,1000.25
2019-05-19T00:10:08.639Z,1000.27
2019-05-19T00:11:08.564Z,1000.25
2019-05-19T00:12:08.525Z,1000.22
2019-05-19T00:13:08.503Z,1000.25
2019-05-19T00:14:08.457Z,1000.24
2019-05-19T00:15:08.397Z,1000.23
2019-05-19T00:16:08.362Z,1000.25
2019-05-19T00:17:08.334Z,1000.27
2019-05-19T00:18:08.280Z,1000.20
2019-05-19T00:19:08.262Z,1000.21
2019-05-19T00:20:08.206Z,1000.18
2019-05-19T00:21:08.158Z,1000.22
2019-05-19T00:22:08.115Z,1000.19
2019-05-19T00:23:08.082Z,1000.22
2019-05-19T00:24:08.072Z,1000.27
2019-05-19T00:25:07.998Z,1000.22
2019-05-19T00:26:07.974Z,1000.24
2019-05-19T00:27:07.915Z,1000.21
2019-05-19T00:28:07.879Z,1000.18
2019-05-19T00:29:07.847Z,1000.19
2019-05-19T00:30:07.828Z,1000.14
2019-05-19T00:31:07.763Z,1000.18
2019-05-19T00:32:07.728Z,1000.14
2019-05-19T00:33:07.683Z,1000.09
2019-05-19T00:34:07.637Z,1000.09
2019-05-19T00:35:07.621Z,1000.12
2019-05-19T00:36:07.559Z,1000.11
2019-05-19T00:37:07.523Z,1000.09
2019-05-19T00:38:07.484Z,1000.09
2019-05-19T00:39:07.444Z,1000.05
2019-05-19T00:40:07.401Z,1000.03
2019-05-19T00:41:07.390Z,1000.00
2019-05-19T00:42:07.323Z,1000.00
2019-05-19T00:43:07.291Z,1000.03
2019-05-19T00:44:07.241Z,1000.02
2019-05-19T00:45:07.202Z,1000.04
2019-05-19T00:46:07.159Z,1000.02
2019-05-19T00:47:07.145Z,1000.02
2019-05-19T00:48:07.082Z,1000.02
2019-05-19T00:49:07.045Z,1000.03
2019-05-19T00:50:07.021Z,1000.04
2019-05-19T00:51:06.961Z,1000.04
2019-05-19T00:52:06.923Z,1000.03
2019-05-19T00:53:06.901Z,1000.01
2019-05-19T00:54:06.835Z,1000.01
2019-05-19T00:55:06.802Z,999.99
2019-05-19T00:56:06.761Z,1000.02
2019-05-19T00:57:06.718Z,999.97
2019-05-19T00:58:06.697Z,999.98
2019-05-19T00:59:06.637Z,999.96
2019-05-19T01:00:06.595Z,999.98
2019-05-19T01:01:06.563Z,999.96
2019-05-19T01:02:06.527Z,999.96
2019-05-19T01:03:06.519Z,999.94
2019-05-19T01:04:06.441Z,999.96
2019-05-19T01:05:06.393Z,999.97
2019-05-19T01:06:06.357Z,999.93
2019-05-19T01:07:06.318Z,999.97
2019-05-19T01:08:06.302Z,999.93
2019-05-19T01:09:06.254Z,999.95
2019-05-19T01:10:06.200Z,999.93
2019-05-19T01:11:06.185Z,999.97
2019-05-19T01:12:06.116Z,999.93
2019-05-19T01:13:06.078Z,999.94
2019-05-19T01:14:06.066Z,999.95
2019-05-19T01:15:05.996Z,999.97
2019-05-19T01:16:05.965Z,999.92
2019-05-19T01:17:05.912Z,999.94
2019-05-19T01:18:05.869Z,999.94
2019-05-19T01:19:05.837Z,999.94
2019-05-19T01:20:05.817Z,999.99
2019-05-19T01:21:05.756Z,999.99
2019-05-19T01:22:05.729Z,1000.00
2019-05-19T01:23:05.673Z,1000.01
2019-05-19T01:24:05.635Z,999.99
2019-05-19T01:25:05.590Z,1000.03
2019-05-19T01:26:05.576Z,1000.03
2019-05-19T01:27:05.516Z,1000.04
2019-05-19T01:28:05.473Z,1000.02
2019-05-19T01:29:05.425Z,1000.02
2019-05-19T01:30:05.410Z,1000.04
2019-05-19T01:31:05.346Z,1000.03
2019-05-19T01:32:05.330Z,1000.05
2019-05-19T01:33:05.276Z,1000.00
2019-05-19T01:34:05.261Z,1000.05
2019-05-19T01:35:05.192Z,1000.03
2019-05-19T01:36:05.154Z,1000.03
2019-05-19T01:37:05.135Z,999.94
2019-05-19T01:38:05.088Z,999.97
2019-05-19T01:39:05.025Z,999.97
2019-05-19T01:40:04.983Z,999.95
2019-05-19T01:41:04.950Z,999.94
2019-05-19T01:42:04.912Z,999.90
2019-05-19T01:43:04.892Z,999.88
2019-05-19T01:44:04.820Z,999.88
2019-05-19T01:45:04.788Z,999.87
2019-05-19T01:46:04.747Z,999.87
2019-05-19T01:47:04.706Z,999.84
2019-05-19T01:48:04.678Z,999.87
2019-05-19T01:49:04.645Z,999.85
2019-05-19T01:50:17.105Z,999.86
2019-05-19T01:51:04.541Z,999.84
2019-05-19T01:52:04.502Z,999.87
2019-05-19T01:53:04.492Z,999.84
2019-05-19T01:54:04.430Z,999.83
2019-05-19T01:55:04.407Z,999.86
2019-05-19T01:56:04.343Z,999.81
2019-05-19T01:57:04.296Z,999.81
2019-05-19T01:58:04.253Z,999.81
2019-05-19T01:59:04.246Z,999.82
2019-05-19T02:00:04.181Z,999.82
2019-05-19T02:01:04.141Z,999.79
2019-05-19T02:02:04.099Z,999.82
2019-05-19T02:03:04.050Z,999.80
2019-05-19T02:04:04.037Z,999.80
2019-05-19T02:05:03.984Z,999.79
2019-05-19T02:06:03.936Z,999.76
2019-05-19T02:07:03.905Z,999.78
2019-05-19T02:08:03.877Z,999.79
2019-05-19T02:09:03.808Z,999.78
2019-05-19T02:10:03.768Z,999.79
2019-05-19T02:11:03.756Z,999.80
2019-05-19T02:12:03.692Z,999.83
2019-05-19T02:13:05.230Z,999.82
2019-05-19T02:14:03.614Z,999.83
2019-05-19T02:15:03.597Z,999.84
2019-05-19T02:16:03.535Z,999.83
2019-05-19T02:17:03.514Z,999.81
2019-05-19T02:18:03.453Z,999.80
2019-05-19T02:19:03.410Z,999.80
2019-05-19T02:20:03.372Z,999.78
2019-05-19T02:21:03.323Z,999.80
2019-05-19T02:22:03.313Z,999.77
2019-05-19T02:23:03.244Z,999.76
2019-05-19T02:24:03.204Z,999.77
2019-05-19T02:25:03.177Z,999.79
2019-05-19T02:26:03.136Z,999.80
2019-05-19T02:27:03.113Z,999.74
2019-05-19T02:28:03.058Z,999.76
2019-05-19T02:29:03.001Z,999.75
2019-05-19T02:30:03.131Z,999.75
2019-05-19T02:31:02.924Z,999.70
2019-05-19T02:32:02.911Z,999.71
2019-05-19T02:33:02.845Z,999.74
2019-05-19T02:34:02.814Z,999.76
2019-05-19T02:35:02.761Z,999.72
2019-05-19T02:36:02.737Z,999.74
2019-05-19T02:37:02.690Z,999.74
2019-05-19T02:38:02.643Z,999.71
2019-05-19T02:39:02.606Z,999.70
2019-05-19T02:40:02.564Z,999.70
2019-05-19T02:41:02.554Z,999.70
2019-05-19T02:42:02.473Z,999.66
2019-05-19T02:43:02.434Z,999.69
2019-05-19T02:44:02.389Z,999.66
2019-05-19T02:45:02.357Z,999.72
2019-05-19T02:46:02.315Z,999.70
2019-05-19T02:47:02.294Z,999.71
2019-05-19T02:48:02.239Z,999.73
2019-05-19T02:49:02.199Z,999.71
2019-05-19T02:50:02.163Z,999.70
2019-05-19T02:51:02.110Z,999.69
2019-05-19T02:52:02.083Z,999.70
2019-05-19T02:53:02.046Z,999.71
2019-05-19T02:54:01.988Z,999.70
2019-05-19T02:55:01.949Z,999.68
2019-05-19T02:56:01.904Z,999.70
2019-05-19T02:57:01.896Z,999.68
2019-05-19T02:58:01.823Z,999.69
2019-05-19T02:59:01.781Z,999.67
2019-05-19T03:00:01.765Z,999.69
2019-05-19T03:01:01.710Z,999.67
2019-05-19T03:02:01.652Z,999.70
2019-05-19T03:03:01.646Z,999.69
2019-05-19T03:04:01.584Z,999.72
2019-05-19T03:05:01.544Z,999.70
2019-05-19T03:06:01.492Z,999.70
2019-05-19T03:07:01.454Z,999.70
2019-05-19T03:08:01.410Z,999.71
2019-05-19T03:09:01.400Z,999.70
2019-05-19T03:10:01.367Z,999.72
2019-05-19T03:11:01.296Z,999.71
2019-05-19T03:12:01.252Z,999.67
2019-05-19T03:13:01.244Z,999.68
2019-05-19T03:14:01.193Z,999.67
2019-05-19T03:15:01.152Z,999.65
2019-05-19T03:16:01.104Z,999.67
2019-05-19T03:17:01.048Z,999.65
2019-05-19T03:18:01.012Z,999.65
2019-05-19T03:19:00.961Z,999.64
2019-05-19T03:20:00.923Z,999.64
2019-05-19T03:21:10.338Z,999.61
2019-05-19T03:22:00.846Z,999.63
2019-05-19T03:23:00.801Z,999.58
2019-05-19T03:24:00.767Z,999.60
2019-05-19T03:25:00.717Z,999.61
2019-05-19T03:26:00.695Z,999.59
2019-05-19T03:27:00.637Z,999.58
2019-05-19T03:28:00.598Z,999.57
2019-05-19T03:29:00.562Z,999.55
2019-05-19T03:30:00.520Z,999.56
2019-05-19T03:31:00.503Z,999.56
2019-05-19T03:32:00.445Z,999.57
2019-05-19T03:33:00.392Z,999.58
2019-05-19T03:34:00.347Z,999.56
2019-05-19T03:35:00.351Z,999.58
2019-05-19T03:36:00.297Z,999.60
2019-05-19T03:37:00.226Z,999.58
2019-05-19T03:38:00.186Z,999.58
2019-05-19T03:39:00.146Z,999.59
2019-05-19T03:40:00.103Z,999.59
2019-05-19T03:41:00.089Z,999.64
2019-05-19T03:42:00.034Z,999.66
2019-05-19T03:42:59.997Z,999.68
2019-05-19T03:44:00.015Z,999.70
2019-05-19T03:44:59.898Z,999.73
2019-05-19T03:45:59.855Z,999.72
2019-05-19T03:46:59.838Z,999.73
2019-05-19T03:47:59.775Z,999.73
2019-05-19T03:48:59.741Z,999.68
2019-05-19T03:49:59.701Z,999.69
2019-05-19T03:50:59.653Z,999.73
2019-05-19T03:51:59.639Z,999.69
2019-05-19T03:52:59.578Z,999.68
2019-05-19T03:53:59.560Z,999.70
2019-05-19T03:54:59.492Z,999.70
2019-05-19T03:55:59.455Z,999.76
2019-05-19T03:56:59.403Z,999.74
2019-05-19T03:57:59.391Z,999.75
2019-05-19T03:58:59.333Z,999.76
2019-05-19T03:59:59.311Z,999.79
2019-05-19T04:00:59.249Z,999.78
2019-05-19T04:01:59.218Z,999.77
2019-05-19T04:02:59.174Z,999.78
2019-05-19T04:03:59.133Z,999.79
2019-05-19T04:04:59.089Z,999.79
2019-05-19T04:05:59.067Z,999.79
2019-05-19T04:06:59.002Z,999.78
2019-05-19T04:07:58.961Z,999.80
2019-05-19T04:08:58.917Z,999.80
2019-05-19T04:09:58.875Z,999.77
2019-05-19T04:10:58.834Z,999.76
2019-05-19T04:11:58.811Z,999.76
2019-05-19T04:12:58.774Z,999.77
2019-05-19T04:13:58.718Z,999.77
2019-05-19T04:14:58.674Z,999.79
2019-05-19T04:15:58.661Z,999.78
2019-05-19T04:16:58.590Z,999.80
2019-05-19T04:17:58.571Z,999.80
2019-05-19T04:18:58.506Z,999.79
2019-05-19T04:19:58.469Z,999.80
2019-05-19T04:20:58.429Z,999.81
2019-05-19T04:21:58.408Z,999.78
2019-05-19T04:22:58.342Z,999.79
2019-05-19T04:23:58.304Z,999.78
2019-05-19T04:24:58.266Z,999.82
2019-05-19T04:25:58.252Z,999.84
2019-05-19T04:26:58.212Z,999.84
2019-05-19T04:27:58.145Z,999.82
2019-05-19T04:28:58.110Z,999.81
2019-05-19T04:29:58.057Z,999.84
2019-05-19T04:30:58.020Z,999.82
2019-05-19T04:31:57.974Z,999.79
2019-05-19T04:32:57.963Z,999.78
2019-05-19T04:33:57.899Z,999.81
2019-05-19T04:34:57.863Z,999.83
2019-05-19T04:35:57.821Z,999.83
2019-05-19T04:36:57.782Z,999.86
2019-05-19T04:37:57.752Z,999.87
2019-05-19T04:38:57.698Z,999.83
2019-05-19T04:39:57.660Z,999.84
2019-05-19T04:40:57.620Z,999.83
2019-05-19T04:41:57.573Z,999.80
2019-05-19T04:42:57.556Z,999.87
2019-05-19T04:43:57.495Z,999.81
2019-05-19T04:44:57.499Z,999.82
2019-05-19T04:45:57.417Z,999.83
2019-05-19T04:46:57.377Z,999.85
2019-05-19T04:47:57.342Z,999.84
2019-05-19T04:48:57.291Z,999.86
2019-05-19T04:49:57.253Z,999.84
2019-05-19T04:50:57.236Z,999.80
2019-05-19T04:52:06.749Z,999.82
2019-05-19T04:52:57.138Z,999.85
2019-05-19T04:53:57.097Z,999.85
2019-05-19T04:54:57.086Z,999.85
2019-05-19T04:55:57.012Z,999.81
2019-05-19T04:56:56.980Z,999.86
2019-05-19T04:57:56.939Z,999.83
2019-05-19T04:58:56.897Z,999.87
2019-05-19T04:59:56.859Z,999.92
2019-05-19T05:00:56.848Z,999.91
2019-05-19T05:01:56.770Z,999.93
2019-05-19T05:02:56.735Z,999.90
2019-05-19T05:03:56.692Z,999.93
2019-05-19T05:04:56.659Z,999.93
2019-05-19T05:05:56.616Z,999.89
2019-05-19T05:06:56.600Z,999.90
2019-05-19T05:07:56.541Z,999.91
2019-05-19T05:08:56.494Z,999.86
2019-05-19T05:09:56.456Z,999.89
2019-05-19T05:10:56.419Z,999.91
2019-05-19T05:11:56.407Z,999.90
2019-05-19T05:12:56.337Z,999.89
2019-05-19T05:13:56.297Z,999.89
2019-05-19T05:14:56.254Z,999.91
2019-05-19T05:15:56.218Z,999.92
2019-05-19T05:16:56.188Z,999.93
2019-05-19T05:17:56.173Z,999.91
2019-05-19T05:18:56.103Z,999.97
2019-05-19T05:19:56.073Z,999.96
2019-05-19T05:20:56.044Z,999.96
2019-05-19T05:21:55.989Z,999.92
2019-05-19T05:22:55.979Z,999.91
2019-05-19T05:23:55.927Z,999.95
2019-05-19T05:24:55.874Z,999.93
2019-05-19T05:25:55.830Z,999.95
2019-05-19T05:26:55.788Z,999.96
2019-05-19T05:27:55.773Z,1000.00
2019-05-19T05:28:55.719Z,1000.00
2019-05-19T05:29:55.727Z,1000.00
2019-05-19T05:30:55.640Z,999.99
2019-05-19T05:31:55.607Z,1000.04
2019-05-19T05:32:55.598Z,1000.01
2019-05-19T05:33:55.544Z,999.99
2019-05-19T05:34:55.476Z,1000.03
2019-05-19T05:35:55.444Z,1000.02
2019-05-19T05:36:55.408Z,1000.05
2019-05-19T05:37:55.367Z,1000.05
2019-05-19T05:38:55.327Z,1000.01
2019-05-19T05:39:55.320Z,1000.03
2019-05-19T05:40:55.244Z,999.99
2019-05-19T05:41:55.236Z,1000.04
2019-05-19T05:42:55.230Z,1000.04
2019-05-19T05:43:55.141Z,1000.04
2019-05-19T05:44:55.094Z,1000.06
2019-05-19T05:45:55.084Z,1000.07
2019-05-19T05:46:55.019Z,1000.09
2019-05-19T05:47:54.977Z,1000.05
2019-05-19T05:48:54.954Z,1000.06
2019-05-19T05:49:54.912Z,1000.04
2019-05-19T05:50:54.864Z,1000.05
2019-05-19T05:51:54.848Z,1000.07
2019-05-19T05:52:54.821Z,1000.03
2019-05-19T05:53:54.764Z,1000.08
2019-05-19T05:54:54.721Z,1000.06
2019-05-19T05:55:54.680Z,1000.06
2019-05-19T05:56:54.644Z,1000.11
2019-05-19T05:57:54.630Z,1000.11
2019-05-19T05:58:54.568Z,1000.16
2019-05-19T05:59:54.533Z,1000.11
2019-05-19T06:00:54.488Z,1000.20
2019-05-19T06:01:54.456Z,1000.15
2019-05-19T06:02:54.419Z,1000.19
2019-05-19T06:03:54.402Z,1000.21
2019-05-19T06:04:54.346Z,1000.21
2019-05-19T06:05:54.312Z,1000.19
2019-05-19T06:06:54.277Z,1000.25
2019-05-19T06:07:54.237Z,1000.27
2019-05-19T06:08:54.217Z,1000.29
2019-05-19T06:09:54.154Z,1000.27
2019-05-19T06:10:54.119Z,1000.30
2019-05-19T06:11:54.085Z,1000.33
2019-05-19T06:12:54.049Z,1000.35
2019-05-19T06:13:54.049Z,1000.40
2019-05-19T06:14:53.973Z,1000.46
2019-05-19T06:15:53.935Z,1000.51
2019-05-19T06:16:53.905Z,1000.57
2019-05-19T06:17:53.881Z,1000.64
2019-05-19T06:18:56.701Z,1000.73
2019-05-19T06:19:53.828Z,1000.75
2019-05-19T06:20:53.764Z,1000.74
2019-05-19T06:21:53.755Z,1000.73
2019-05-19T06:22:57.025Z,1000.73
2019-05-19T06:23:53.652Z,1000.67
2019-05-19T06:24:53.628Z,1000.69
2019-05-19T06:25:53.590Z,1000.69
2019-05-19T06:26:53.555Z,1000.69
2019-05-19T06:27:53.550Z,1000.70
2019-05-19T06:28:53.484Z,1000.65
2019-05-19T06:29:53.446Z,1000.71
2019-05-19T06:30:53.419Z,1000.75
2019-05-19T06:31:53.409Z,1000.74
2019-05-19T06:32:53.375Z,1000.81
2019-05-19T06:33:53.313Z,1000.80
2019-05-19T06:34:53.286Z,1000.80
2019-05-19T06:35:53.249Z,1000.80
2019-05-19T06:36:55.111Z,1000.80
2019-05-19T06:37:53.186Z,1000.68
2019-05-19T06:38:53.187Z,1000.76
2019-05-19T06:39:53.121Z,1000.84
2019-05-19T06:40:53.083Z,1000.84
2019-05-19T06:41:53.042Z,1001.05
2019-05-19T06:42:53.018Z,1001.03
2019-05-19T06:43:53.005Z,1001.01
2019-05-19T06:44:52.954Z,1001.20
2019-05-19T06:45:52.914Z,1001.14
2019-05-19T06:46:52.878Z,1001.20
2019-05-19T06:47:52.883Z,1001.24
2019-05-19T06:48:52.841Z,1001.29
2019-05-19T06:49:52.813Z,1001.34
2019-05-19T06:50:52.754Z,1001.33
2019-05-19T06:51:52.724Z,1001.27
2019-05-19T06:52:52.680Z,1001.34
2019-05-19T06:53:52.651Z,1001.36
2019-05-19T06:54:52.618Z,1001.37
2019-05-19T06:55:52.611Z,1001.36
2019-05-19T06:56:52.580Z,1001.30
2019-05-19T06:57:52.525Z,1001.20
2019-05-19T06:58:52.491Z,1001.07
2019-05-19T06:59:52.462Z,1000.99
2019-05-19T07:00:52.426Z,1000.78
2019-05-19T07:01:52.416Z,1000.62
2019-05-19T07:02:52.363Z,1000.60
2019-05-19T07:03:52.354Z,1000.56
2019-05-19T07:04:52.295Z,1000.66
2019-05-19T07:05:52.264Z,1000.73
2019-05-19T07:06:52.549Z,1000.75
2019-05-19T07:07:52.194Z,1000.81
2019-05-19T07:08:52.210Z,1000.70
2019-05-19T07:09:58.549Z,1000.62
2019-05-19T07:10:52.102Z,1000.61
2019-05-19T07:11:52.072Z,1000.48
2019-05-19T07:12:52.039Z,1000.52
2019-05-19T07:13:52.003Z,1000.48
2019-05-19T07:14:51.989Z,1000.44
2019-05-19T07:15:51.935Z,1000.45
2019-05-19T07:16:51.908Z,1000.41
2019-05-19T07:17:51.894Z,1000.45
2019-05-19T07:18:51.830Z,1000.43
2019-05-19T07:19:51.845Z,1000.46
2019-05-19T07:20:51.768Z,1000.44
2019-05-19T07:21:51.733Z,1000.46
2019-05-19T07:22:51.701Z,1000.42
2019-05-19T07:23:51.666Z,1000.50
2019-05-19T07:24:51.624Z,1000.46
2019-05-19T07:25:51.621Z,1000.48
2019-05-19T07:26:51.558Z,1000.50
2019-05-19T07:27:51.525Z,1000.55
2019-05-19T07:28:51.496Z,1000.61
2019-05-19T07:29:51.463Z,1000.66
2019-05-19T07:30:51.442Z,1000.65
2019-05-19T07:31:51.421Z,1000.70
2019-05-19T07:32:51.353Z,1000.74
2019-05-19T07:33:51.317Z,1000.71
2019-05-19T07:34:51.289Z,1000.65
2019-05-19T07:35:51.255Z,1000.60
2019-05-19T07:36:51.258Z,1000.57
2019-05-19T07:37:51.190Z,1000.57
2019-05-19T07:38:51.147Z,1000.60
2019-05-19T07:39:51.112Z,1000.57
2019-05-19T07:40:51.102Z,1000.63
2019-05-19T07:41:51.053Z,1000.64
2019-05-19T07:42:51.036Z,1000.64
2019-05-19T07:43:50.980Z,1000.57
2019-05-19T07:44:50.939Z,1000.59
2019-05-19T07:45:50.929Z,1000.57
2019-05-19T07:46:50.871Z,1000.56
2019-05-19T07:47:50.834Z,1000.56
2019-05-19T07:48:50.875Z,1000.54
2019-05-19T07:49:50.771Z,1000.50
2019-05-19T07:50:50.740Z,1000.51
2019-05-19T07:51:50.700Z,1000.52
2019-05-19T07:52:50.678Z,1000.51
2019-05-19T07:53:50.681Z,1000.49
2019-05-19T07:54:50.625Z,1000.48
2019-05-19T07:55:50.595Z,1000.46
2019-05-19T07:56:50.570Z,1000.48
2019-05-19T07:57:50.502Z,1000.52
2019-05-19T07:58:50.462Z,1000.57
2019-05-19T07:59:50.430Z,1000.58
2019-05-19T08:00:50.425Z,1000.53
2019-05-19T08:01:50.405Z,1000.56
2019-05-19T08:02:50.333Z,1000.56
2019-05-19T08:03:50.300Z,1000.53
2019-05-19T08:04:50.261Z,1000.55
2019-05-19T08:05:50.254Z,1000.53
2019-05-19T08:06:50.194Z,1000.54
2019-05-19T08:07:50.163Z,1000.55
2019-05-19T08:08:50.123Z,1000.59
2019-05-19T08:09:50.087Z,1000.63
2019-05-19T08:10:50.065Z,1000.61
2019-05-19T08:11:50.047Z,1000.56
2019-05-19T08:12:49.996Z,1000.61
2019-05-19T08:13:49.965Z,1000.65
2019-05-19T08:14:49.929Z,1000.73
2019-05-19T08:15:49.922Z,1000.63
2019-05-19T08:16:49.859Z,1000.62
2019-05-19T08:17:49.837Z,1000.63
2019-05-19T08:18:49.845Z,1000.75
2019-05-19T08:19:49.781Z,1000.76
2019-05-19T08:20:49.758Z,1000.73
2019-05-19T08:21:49.705Z,1000.77
2019-05-19T08:22:51.463Z,1000.79
2019-05-19T08:23:59.990Z,1000.92
2019-05-19T08:24:49.619Z,1001.01
2019-05-19T08:25:49.568Z,1001.11
2019-05-19T08:26:49.531Z,1001.08
2019-05-19T08:27:49.501Z,1001.01
2019-05-19T08:28:49.490Z,1001.03
2019-05-19T08:29:49.446Z,1001.11
2019-05-19T08:30:49.396Z,1001.07
2019-05-19T08:31:49.384Z,1001.12
2019-05-19T08:32:49.442Z,1001.09
2019-05-19T08:33:49.329Z,1001.14
2019-05-19T08:34:49.303Z,1001.14
2019-05-19T08:35:49.510Z,1001.18
2019-05-19T08:36:49.209Z,1001.28
2019-05-19T08:37:49.170Z,1001.34
2019-05-19T08:38:49.147Z,1001.33
2019-05-19T08:39:49.126Z,1001.28
2019-05-19T08:40:49.144Z,1001.19
2019-05-19T08:41:49.114Z,1001.21
2019-05-19T08:42:49.029Z,1001.21
2019-05-19T08:43:48.986Z,1001.14
2019-05-19T08:44:48.989Z,1001.14
2019-05-19T08:45:48.935Z,1001.12
2019-05-19T08:46:48.907Z,1001.06
2019-05-19T08:47:48.881Z,1001.00
2019-05-19T08:48:48.838Z,1000.98
2019-05-19T08:49:48.837Z,1001.03
2019-05-19T08:50:48.778Z,1001.03
2019-05-19T08:51:48.754Z,1001.12
2019-05-19T08:52:48.727Z,1001.02
2019-05-19T08:53:48.694Z,1000.86
2019-05-19T08:54:48.679Z,1000.76
2019-05-19T08:55:48.627Z,1000.70
2019-05-19T08:56:48.606Z,1000.92
2019-05-19T08:57:48.573Z,1001.09
2019-05-19T08:58:48.546Z,1001.09
2019-05-19T08:59:48.539Z,1001.10
2019-05-19T09:00:48.484Z,1001.10
2019-05-19T09:01:48.452Z,1000.92
2019-05-19T09:02:48.441Z,1000.74
2019-05-19T09:03:48.421Z,1000.90
2019-05-19T09:04:48.369Z,1001.11
2019-05-19T09:05:48.339Z,1001.09
2019-05-19T09:06:48.310Z,1001.02
2019-05-19T09:07:48.279Z,1001.09
2019-05-19T09:08:48.242Z,1001.12
2019-05-19T09:09:48.269Z,1000.99
2019-05-19T09:10:48.214Z,1000.90
2019-05-19T09:11:48.178Z,1000.89
2019-05-19T09:12:48.126Z,1000.81
2019-05-19T09:13:48.123Z,1000.92
2019-05-19T09:14:48.068Z,1000.53
2019-05-19T09:15:48.062Z,1000.84
2019-05-19T09:16:48.021Z,1000.88
2019-05-19T09:17:47.986Z,1001.14
2019-05-19T09:18:47.967Z,1001.05
2019-05-19T09:19:47.931Z,1001.07
2019-05-19T09:20:47.920Z,1000.98
2019-05-19T09:21:47.897Z,1001.08
2019-05-19T09:22:47.835Z,1000.97
2019-05-19T09:23:47.820Z,1000.87
2019-05-19T09:24:47.790Z,1000.81
2019-05-19T09:25:47.784Z,1000.87
2019-05-19T09:26:47.729Z,1000.87
2019-05-19T09:27:47.698Z,1001.00
2019-05-19T09:28:47.675Z,1001.06
2019-05-19T09:29:47.646Z,1001.07
2019-05-19T09:30:47.684Z,1000.99
2019-05-19T09:31:48.363Z,1000.92
2019-05-19T09:32:47.555Z,1000.93
2019-05-19T09:33:47.562Z,1000.92
2019-05-19T09:34:47.500Z,1001.10
2019-05-19T09:35:47.469Z,1001.05
2019-05-19T09:36:47.446Z,1001.03
2019-05-19T09:37:47.425Z,1000.99
2019-05-19T09:38:47.391Z,1000.90
2019-05-19T09:39:47.390Z,1000.97
2019-05-19T09:40:47.331Z,1000.85
2019-05-19T09:41:47.311Z,1000.87
2019-05-19T09:42:47.425Z,1000.79
2019-05-19T09:43:47.256Z,1000.75
2019-05-19T09:44:47.246Z,1000.80
2019-05-19T09:45:47.192Z,1000.74
2019-05-19T09:46:47.170Z,1000.65
2019-05-19T09:47:47.144Z,1000.70
2019-05-19T09:48:47.162Z,1000.69
2019-05-19T09:49:47.095Z,1000.70
2019-05-19T09:50:47.067Z,1000.72
2019-05-19T09:51:47.087Z,1000.69
2019-05-19T09:52:47.011Z,1000.63
2019-05-19T09:53:47.013Z,1000.60
2019-05-19T09:54:46.958Z,1000.63
2019-05-19T09:55:46.935Z,1000.66
2019-05-19T09:56:46.916Z,1000.60
2019-05-19T09:57:46.887Z,1000.61
2019-05-19T09:58:46.859Z,1000.55
2019-05-19T09:59:46.859Z,1000.59
2019-05-19T10:00:46.811Z,1000.58
2019-05-19T10:01:46.784Z,1000.42
2019-05-19T10:02:46.757Z,1000.31
2019-05-19T10:03:46.737Z,1000.42
2019-05-19T10:04:46.702Z,1000.25
2019-05-19T10:05:46.703Z,1000.52
2019-05-19T10:06:46.687Z,1000.57
2019-05-19T10:07:46.649Z,1000.54
2019-05-19T10:08:46.600Z,1000.49
2019-05-19T10:09:46.571Z,1000.44
2019-05-19T10:10:46.547Z,1000.40
2019-05-19T10:11:46.531Z,1000.48
2019-05-19T10:12:46.481Z,1000.43
2019-05-19T10:13:46.483Z,1000.44
2019-05-19T10:14:46.442Z,1000.37
2019-05-19T10:15:46.410Z,1000.39
2019-05-19T10:16:46.383Z,1000.29
2019-05-19T10:17:46.348Z,1000.29
2019-05-19T10:18:46.353Z,1000.31
2019-05-19T10:19:46.301Z,1000.35
2019-05-19T10:20:46.281Z,1000.31
2019-05-19T10:21:46.276Z,1000.33
2019-05-19T10:22:46.221Z,1000.27
2019-05-19T10:23:46.196Z,1000.23
2019-05-19T10:25:04.210Z,1000.27
2019-05-19T10:25:46.127Z,1000.31
2019-05-19T10:26:46.111Z,1000.35
2019-05-19T10:27:46.080Z,1000.35
2019-05-19T10:28:46.057Z,1000.35
2019-05-19T10:29:46.039Z,1000.32
2019-05-19T10:30:46.030Z,1000.35
2019-05-19T10:31:45.969Z,1000.31
2019-05-19T10:32:45.947Z,1000.33
2019-05-19T10:33:45.914Z,1000.33
2019-05-19T10:34:45.884Z,1000.35
2019-05-19T10:35:45.859Z,1000.34
2019-05-19T10:36:45.849Z,1000.30
2019-05-19T10:37:45.798Z,1000.27
2019-05-19T10:38:45.772Z,1000.28
2019-05-19T10:39:45.770Z,1000.22
2019-05-19T10:40:45.717Z,1000.22
2019-05-19T10:41:45.702Z,1000.22
2019-05-19T10:42:45.663Z,1000.18
2019-05-19T10:43:45.632Z,1000.10
2019-05-19T10:44:45.601Z,1000.08
2019-05-19T10:45:45.606Z,1000.09
2019-05-19T10:46:45.554Z,1000.08
2019-05-19T10:47:45.519Z,1000.13
2019-05-19T10:48:45.483Z,1000.07
2019-05-19T10:49:45.497Z,1000.04
2019-05-19T10:50:45.443Z,1000.06
2019-05-19T10:51:45.452Z,1000.04
2019-05-19T10:52:45.368Z,1000.05
2019-05-19T10:53:45.338Z,1000.08
2019-05-19T10:54:45.310Z,999.99
2019-05-19T10:55:45.286Z,999.99
2019-05-19T10:56:45.248Z,1000.00
2019-05-19T10:57:45.242Z,1000.00
2019-05-19T10:58:45.195Z,1000.00
2019-05-19T10:59:45.178Z,1000.01
2019-05-19T11:00:45.141Z,999.98
2019-05-19T11:01:45.108Z,1000.09
2019-05-19T11:02:45.091Z,1000.07
2019-05-19T11:03:45.037Z,1000.04
2019-05-19T11:04:45.018Z,1000.02
2019-05-19T11:05:44.987Z,1000.05
2019-05-19T11:06:44.959Z,1000.01
2019-05-19T11:07:44.955Z,1000.02
2019-05-19T11:08:44.893Z,1000.07
2019-05-19T11:09:44.898Z,1000.10
2019-05-19T11:10:44.834Z,1000.08
2019-05-19T11:11:44.816Z,1000.01
2019-05-19T11:12:46.953Z,999.99
2019-05-19T11:13:44.783Z,999.92
2019-05-19T11:14:44.726Z,999.93
2019-05-19T11:15:44.693Z,999.91
2019-05-19T11:16:44.665Z,999.91
2019-05-19T11:17:44.630Z,999.86
2019-05-19T11:18:44.606Z,999.88
2019-05-19T11:19:44.604Z,999.84
2019-05-19T11:20:44.541Z,999.86
2019-05-19T11:21:44.518Z,999.87
2019-05-19T11:22:44.480Z,999.87
2019-05-19T11:23:44.455Z,999.91
2019-05-19T11:24:44.455Z,999.96
2019-05-19T11:25:51.392Z,1000.00
2019-05-19T11:26:44.368Z,1000.01
2019-05-19T11:27:44.341Z,999.97
2019-05-19T11:28:44.309Z,999.94
2019-05-19T11:29:44.277Z,999.91
2019-05-19T11:30:44.270Z,999.99
2019-05-19T11:31:44.210Z,999.94
2019-05-19T11:32:44.194Z,999.83
2019-05-19T11:33:44.160Z,999.88
2019-05-19T11:34:44.123Z,999.89
2019-05-19T11:35:44.122Z,999.91
2019-05-19T11:36:44.071Z,999.84
2019-05-19T11:37:44.041Z,999.75
2019-05-19T11:38:44.011Z,999.80
2019-05-19T11:39:43.982Z,999.78
2019-05-19T11:40:43.945Z,999.75
2019-05-19T11:41:43.947Z,999.79
2019-05-19T11:42:46.777Z,999.82
2019-05-19T11:43:43.870Z,999.86
2019-05-19T11:44:43.836Z,999.71
2019-05-19T11:45:43.805Z,999.69
2019-05-19T11:46:43.788Z,999.63
2019-05-19T11:47:43.769Z,999.51
2019-05-19T11:48:43.711Z,999.48
2019-05-19T11:49:43.679Z,999.48
2019-05-19T11:50:43.656Z,999.61
2019-05-19T11:51:43.623Z,999.57
2019-05-19T11:52:43.589Z,999.75
2019-05-19T11:53:43.585Z,999.84
2019-05-19T11:54:43.529Z,999.85
2019-05-19T11:55:43.499Z,999.88
2019-05-19T11:56:43.479Z,999.83
2019-05-19T11:57:43.444Z,999.78
2019-05-19T11:58:43.439Z,999.82
2019-05-19T11:59:43.384Z,999.82
2019-05-19T12:00:43.403Z,999.80
2019-05-19T12:01:43.321Z,999.80
2019-05-19T12:02:43.294Z,999.84
2019-05-19T12:03:43.267Z,999.78
2019-05-19T12:04:43.287Z,999.75
2019-05-19T12:05:43.209Z,999.76
2019-05-19T12:06:43.187Z,999.84
2019-05-19T12:07:43.176Z,999.82
2019-05-19T12:08:43.138Z,999.85
2019-05-19T12:09:43.110Z,999.84
2019-05-19T12:10:43.075Z,999.78
2019-05-19T12:11:43.034Z,999.76
2019-05-19T12:12:43.001Z,999.66
2019-05-19T12:13:42.994Z,999.68
2019-05-19T12:14:42.947Z,999.83